Central Sonoma County Latest

37 Stations

15 Minute Data
as of 5/4/26 11:51 AM PDT
Station Date Time Temp (°F) RH (%) Dew Pt (°F) Wind Spd (mph) Wind Dir (°) Wind Gust (mph) Latest Rain (In) Daily Rain (In) Daily Max Temp (°F) Daily Min Temp (°F)
Windsor-NW (Ranch 8) 5/4/26 1145 63.4   4.7 64   11 51.0   0.3 3.1   1.2 SW | 234 7.0   2.3 0.00 0.00 68.4   9.7 48.6   4.1
Windsor-East (Ranch 16) 5/4/26 1145 66.0   8.4 53   15 48.3   1.2 4.4   2.0 SSW | 213 9.6   4.2 0.00 0.00 67.4   9.1 46.6   6.4
Mark West-North (Ranch 14) 5/4/26 1145 67.6   10.2 50   18 48.3   1.3 1.9   0.2 S | 176 5.3   0.3 0.00 0.00 69.4   11.3 47.8   5.1
Windsor-SE (Silk Rd) 5/4/26 1145 67.5   8.5 52   10 49.4   3.1 2.9   1.5 S | 172 6.7   2.3 0.00 0.00 68.3   8.6 46.0   7.3
Fulton-NW (Ranch 5) 5/4/26 1145 66.7   8.9 52   15 48.8   1.6 3.7   1.9 SE | 131 8.2   3.4 0.00 0.00 67.5   9.2 46.7   6.4
Bisordi (Fulton) 5/4/26 1145 65.5   8.2 62   12 52.2   2.9 2.7   1.0 SW | 222 7.2   2.8 0.00 0.00 65.5   8.0 46.4   7.0
Windsor-South (Laughlin Rd) 2/28/26 0515 55.4   5.1 92   7 53.2   3.1 - - - 0.00 0.00 61.9   7.4 55.2   5.6
Fulton-SE (Barnes Rd) 5/4/26 1145 64.3   6.9 54   14 47.4   0.5 0.0   2.0 N | 0 0.0   4.9 0.00 0.00 64.5   6.2 46.7   7.0
Fulton-SW (Ranch 21) 5/4/26 1130 64.2   7.4 56   13 48.2   1.3 2.3   1.1 S | 190 7.5   1.2 0.00 0.00 65.1   7.5 47.4   5.3
NW Santa Rosa (Piner Road) 5/4/26 1145 64.2   5.9 64   11 51.7   1.3 1.7   1.0 S | 180 4.5   1.8 0.00 0.00 65.7   6.6 46.6   6.2
River Rd South (Denner Ranch) 5/4/26 1145 65.6   5.9 54   8 48.6   1.9 4.2   2.6 SSE | 163 10.5   4.4 - - 66.6   6.2 45.1   7.4
West Santa Rosa (LOV Vineyard) 5/4/26 1145 64.1   5.2 58   8 48.9   1.5 2.6   1.2 NNW | 327 5.3   0.9 0.00 0.00 64.4   5.1 46.4   6.7
Guerneville Rd (Prokopakis) 5/4/26 1145 67.0   7.4 53   12 49.3   1.4 - - - 0.00 0.00 68.3   8.2 46.7   7.0
SunnyView Vineyard (SCWC) 5/4/26 1145 65.0   6.8 56   10 49.2   1.9 1.7   0.3 SE | 129 4.8   1.7 0.00 0.00 66.1   6.9 43.9   8.7
Guerneville Rd West (Balletto) 5/4/26 1145 64.2   5.6 63   8 51.3   2.0 2.7   1.6 SSE | 164 8.6   5.3 0.00 0.00 64.7   5.7 45.2   8.0
Sanchietti Ranch 5/4/26 1145 62.8   2.9 73   0 54.1   2.9 4.8   2.1 SSE | 160 9.3   3.7 0.00 0.00 64.1   3.6 47.2   6.8
Occidental Rd (Sebastopol) 5/4/26 1145 63.3   3.4 97   1 62.3   3.1 2.4   0.9 S | 172 6.8   0.4 0.00 0.00 64.5   4.0 44.2   8.2
Harper's Rest (Windsor-West) 5/4/26 1145 65.0   6.3 55   8 48.2   2.3 2.0   0.5 SE | 134 4.9   1.2 0.00 0.00 66.5   7.2 44.8   7.1
Lower Westside Rd (Ranch 12) 5/4/26 1145 64.4   4.1 56   4 48.2   1.8 2.4   0.3 SE | 141 4.6   0.5 0.00 0.00 67.4   6.3 45.8   7.1
Guerneville (Laughlin Rd) 5/4/26 1145 63.4   4.7 60   3 49.3   3.1 6.2   5.0 SSE | 162 11.5   4.6 0.00 0.00 66.2   7.0 46.9   6.2
Korbel (Winery) 5/4/26 1145 64.8   5.2 59   4 50.1   3.2 0.0   1.9 SW | 230 0.1   6.4 0.00 0.00 65.9   5.3 48.3   5.4
Forestville (Shone Farms) 5/4/26 1145 64.1   4.5 57   6 48.8   1.8 2.6   1.5 ESE | 114 6.7   3.7 0.00 0.00 67.2   6.4 45.7   5.6
Forestville-NE (Ranch 30) 5/4/26 1145 63.7   4.5 63   5 51.0   2.1 4.1   1.8 SE | 140 7.7   1.4 0.00 0.00 67.3   6.4 44.6   7.9
Foggy Bend (Ranch 41) 5/4/26 1145 64.3   4.9 62   6 51.2   2.1 1.9   0.3 ENE | 67 4.7   0.5 0.00 0.00 67.5   7.7 46.0   7.7
Last Stop 5/4/26 1145 65.5   7.3 54   15 48.6   0.3 3.6   0.6 SSE | 149 7.7   1.5 0.00 0.00 66.6   7.6 43.2   9.8
Green Valley Vineyard 5/4/26 1145 64.4   6.7 54   13 47.4   0.6 2.6   0.7 ESE | 108 7.7   0.7 0.00 0.00 66.1   7.9 44.3   7.9
Park Royal 5/4/26 1145 64.8   6.0 57   8 49.1   2.1 - - - 0.00 0.00 65.5   6.2 45.7   7.2
Merino 5/4/26 1145 62.8   4.1 70   5 52.9   1.9 4.6   2.2 S | 169 8.1   2.6 0.00 0.00 64.1   5.0 45.0   7.8
Green Valley (Sanchietti) 5/4/26 1145 66.3   7.0 - - - - - - - 67.6   7.1 43.2   10.4
Keefer Ranch (Green Valley) 5/4/26 1145 65.1   6.4 57   13 49.5   0.5 - - - 0.00 0.00 65.6   6.8 43.7   9.8
Graton-West (Dutton Ranch) 5/4/26 1145 65.2   6.0 64   30 52.7   4.7 2.8   0.5 SE | 137 6.6   1.4 0.00 0.00 66.6   7.1 44.4   9.0
Graton-South (Mill Station Rd) 5/4/26 1145 62.4   4.8 65   7 50.4   1.9 1.4   0.2 ESE | 123 5.2   0.0 0.00 0.00 63.0   4.3 42.5   9.6
Occidental (Horseshoe Bend) 5/4/26 1145 61.0   4.2 64   7 48.9   1.2 - - - 0.00 0.00 63.2   6.0 46.3   3.9
Sexton Valley (Jacqueline's Blk) 5/4/26 1145 62.5   4.0 69   6 52.1   1.6 3.0   1.3 N | 9 6.7   1.5 0.00 0.00 63.0   3.7 43.7   8.8
Sebastopol Hills (Burnside Rd) 5/4/26 1145 59.3   3.4 75   5 51.3   1.6 3.0   0.2 S | 176 8.6   0.9 0.00 0.00 59.8   3.5 47.8   2.9
Pleasant Hill 5/4/26 1145 60.2   1.7 69   1 50.1   2.0 2.5   0.4 E | 86 4.9   1.7 0.00 0.00 60.8   0.8 44.7   6.6
Seaview/Fort Ross (Hirsch) 5/4/26 1145 55.8   5.4 79   10 49.3   2.2 3.0   1.4 WNW | 283 7.1   3.1 0.00 0.00 56.2   5.6 46.2   0.1
Max     67.6 97 62.3 6.2 - 11.5 0.00 0.00 69.4 48.6
Avg     64.1 61 50.2 2.8 - 6.6 0.00 - - -
Min     55.8 50 47.4 0.0 - 0.0 0.00 0.00 56.2 42.5